createdAt,value
2023-01-25T00:01:01.032Z,2.95
2023-01-25T00:03:01.146Z,3.09
2023-01-25T00:05:01.024Z,3.17
2023-01-25T00:07:01.078Z,3.13
2023-01-25T00:10:43.065Z,3.02
2023-01-25T00:12:43.126Z,3.06
2023-01-25T00:14:43.082Z,3.09
2023-01-25T00:16:43.077Z,3.11
2023-01-25T00:18:43.101Z,3.14
2023-01-25T00:20:43.051Z,3.16
2023-01-25T00:22:43.100Z,3.08
2023-01-25T00:25:16.230Z,3.06
2023-01-25T00:27:16.231Z,3.02
2023-01-25T00:29:16.290Z,2.9
2023-01-25T00:31:16.320Z,2.83
2023-01-25T00:33:16.256Z,2.82
2023-01-25T00:35:16.243Z,2.69
2023-01-25T00:37:16.234Z,2.7
2023-01-25T00:40:35.352Z,2.92
2023-01-25T00:42:35.343Z,2.87
2023-01-25T00:44:35.416Z,2.89
2023-01-25T00:46:35.333Z,2.82
2023-01-25T00:48:35.349Z,2.86
2023-01-25T00:50:35.372Z,2.82
2023-01-25T00:52:35.352Z,2.74
2023-01-25T00:55:28.908Z,2.86
2023-01-25T00:57:28.865Z,2.95
2023-01-25T00:59:28.884Z,2.84
2023-01-25T01:01:28.924Z,2.97
2023-01-25T01:03:28.915Z,3.07
2023-01-25T01:05:29.037Z,3.09
2023-01-25T01:07:28.958Z,3.01
2023-01-25T01:09:29.166Z,2.84
2023-01-25T01:11:10.509Z,2.88
2023-01-25T01:13:10.378Z,2.93
2023-01-25T01:15:10.586Z,2.92
2023-01-25T01:17:10.344Z,2.8
2023-01-25T01:19:10.375Z,2.81
2023-01-25T01:21:10.439Z,2.84
2023-01-25T01:23:10.342Z,2.86
2023-01-25T01:25:50.221Z,2.85
2023-01-25T01:27:50.293Z,2.8
2023-01-25T01:29:50.165Z,2.77
2023-01-25T01:31:50.268Z,2.73
2023-01-25T01:33:50.190Z,2.64
2023-01-25T01:35:50.194Z,2.6
2023-01-25T01:37:50.200Z,2.63
2023-01-25T01:39:50.173Z,2.82
2023-01-25T01:41:25.226Z,2.67
2023-01-25T01:43:25.181Z,2.76
2023-01-25T01:45:25.193Z,2.78
2023-01-25T01:47:25.169Z,2.76
2023-01-25T01:49:25.230Z,2.83
2023-01-25T01:51:25.139Z,2.78
2023-01-25T01:53:25.153Z,2.75
2023-01-25T01:56:51.930Z,2.62
2023-01-25T01:58:51.888Z,2.7
2023-01-25T02:00:51.921Z,2.7
2023-01-25T02:02:51.959Z,2.71
2023-01-25T02:04:51.910Z,2.77
2023-01-25T02:06:51.865Z,2.72
2023-01-25T02:08:51.882Z,2.73
2023-01-25T02:11:59.087Z,2.74
2023-01-25T02:13:59.014Z,2.75
2023-01-25T02:15:59.104Z,2.73
2023-01-25T02:17:58.983Z,2.82
2023-01-25T02:19:59.161Z,2.71
2023-01-25T02:21:58.971Z,2.72
2023-01-25T02:23:59.004Z,2.79
2023-01-25T02:26:46.568Z,2.6
2023-01-25T02:28:46.546Z,2.37
2023-01-25T02:30:46.595Z,2.52
2023-01-25T02:32:46.556Z,2.4
2023-01-25T02:34:46.514Z,2.44
2023-01-25T02:36:46.589Z,2.42
2023-01-25T02:38:46.528Z,2.54
2023-01-25T02:42:22.170Z,2.5
2023-01-25T02:44:22.133Z,2.44
2023-01-25T02:46:22.151Z,2.47
2023-01-25T02:48:22.143Z,2.57
2023-01-25T02:50:22.157Z,2.44
2023-01-25T02:52:22.157Z,2.52
2023-01-25T02:54:22.119Z,2.57
2023-01-25T02:57:44.939Z,2.56
2023-01-25T02:59:44.910Z,2.78
2023-01-25T03:01:45.036Z,2.7
2023-01-25T03:03:44.871Z,2.68
2023-01-25T03:05:45.002Z,2.74
2023-01-25T03:07:44.977Z,2.73
2023-01-25T03:09:44.875Z,2.7
2023-01-25T03:12:53.606Z,2.63
2023-01-25T03:14:53.589Z,2.59
2023-01-25T03:16:53.562Z,2.62
2023-01-25T03:18:53.566Z,2.62
2023-01-25T03:20:53.681Z,2.66
2023-01-25T03:22:53.632Z,2.67
2023-01-25T03:24:53.571Z,2.65
2023-01-25T03:27:21.151Z,2.55
2023-01-25T03:29:21.193Z,2.71
2023-01-25T03:31:21.238Z,2.56
2023-01-25T03:33:21.218Z,2.5
2023-01-25T03:35:21.418Z,2.63
2023-01-25T03:37:21.140Z,2.63
2023-01-25T03:39:21.208Z,2.64
2023-01-25T03:43:14.287Z,2.66
2023-01-25T03:45:14.352Z,2.63
2023-01-25T03:47:14.325Z,2.63
2023-01-25T03:49:14.323Z,2.48
2023-01-25T03:51:14.286Z,2.46
2023-01-25T03:53:14.292Z,2.51
2023-01-25T03:55:14.290Z,2.49
2023-01-25T03:58:05.705Z,2.53
2023-01-25T04:00:05.691Z,2.48
2023-01-25T04:02:05.704Z,2.46
2023-01-25T04:04:05.629Z,2.46
2023-01-25T04:06:05.643Z,2.5
2023-01-25T04:08:05.692Z,2.44
2023-01-25T04:10:05.632Z,2.28
2023-01-25T04:13:30.258Z,2.3
2023-01-25T04:15:30.226Z,2.28
2023-01-25T04:17:30.223Z,2.38
2023-01-25T04:19:30.235Z,2.37
2023-01-25T04:21:30.195Z,2.44
2023-01-25T04:23:30.242Z,2.5
2023-01-25T04:25:30.371Z,2.49
2023-01-25T04:27:48.814Z,2.47
2023-01-25T04:29:48.895Z,2.43
2023-01-25T04:31:48.945Z,2.51
2023-01-25T04:33:50.582Z,2.53
2023-01-25T04:35:48.846Z,2.46
2023-01-25T04:37:48.819Z,2.5
2023-01-25T04:39:48.812Z,2.48
2023-01-25T04:41:48.859Z,2.41
2023-01-25T04:43:44.452Z,2.54
2023-01-25T04:45:44.539Z,2.33
2023-01-25T04:47:44.423Z,2.38
2023-01-25T04:49:44.467Z,2.33
2023-01-25T04:51:44.452Z,2.33
2023-01-25T04:53:44.429Z,2.31
2023-01-25T04:55:44.445Z,2.33
2023-01-25T04:58:39.915Z,2.34
2023-01-25T05:00:39.786Z,2.35
2023-01-25T05:02:39.903Z,2.26
2023-01-25T05:04:39.750Z,2.23
2023-01-25T05:06:39.792Z,2.42
2023-01-25T05:08:39.766Z,2.37
2023-01-25T05:10:39.768Z,2.34
2023-01-25T05:14:03.533Z,2.32
2023-01-25T05:16:03.479Z,2.36
2023-01-25T05:18:03.579Z,2.41
2023-01-25T05:20:03.651Z,2.43
2023-01-25T05:22:03.580Z,2.38
2023-01-25T05:24:03.597Z,2.37
2023-01-25T05:26:03.471Z,2.32
2023-01-25T05:28:59.593Z,2.4
2023-01-25T05:30:59.595Z,2.39
2023-01-25T05:32:59.556Z,2.34
2023-01-25T05:35:00.879Z,2.35
2023-01-25T05:36:59.585Z,2.29
2023-01-25T05:38:59.594Z,2.34
2023-01-25T05:40:59.571Z,2.35
2023-01-25T05:44:19.975Z,2.34
2023-01-25T05:46:20.076Z,2.23
2023-01-25T05:48:20.124Z,2.22
2023-01-25T05:50:20.230Z,2.12
2023-01-25T05:52:19.988Z,2.27
2023-01-25T05:54:19.979Z,2.37
2023-01-25T05:56:19.964Z,2.33
2023-01-25T05:59:18.704Z,2.38
2023-01-25T06:01:18.665Z,2.36
2023-01-25T06:03:18.809Z,2.43
2023-01-25T06:05:18.656Z,2.28
2023-01-25T06:07:18.715Z,2.2
2023-01-25T06:09:18.704Z,2.2
2023-01-25T06:11:18.690Z,2.17
2023-01-25T06:14:16.438Z,2.17
2023-01-25T06:16:16.476Z,2.13
2023-01-25T06:18:16.454Z,2.24
2023-01-25T06:20:16.452Z,2.36
2023-01-25T06:22:16.462Z,2.52
2023-01-25T06:24:16.474Z,2.52
2023-01-25T06:26:16.580Z,2.53
2023-01-25T06:29:37.113Z,2.43
2023-01-25T06:31:37.442Z,2.41
2023-01-25T06:33:37.102Z,2.39
2023-01-25T06:35:37.121Z,2.58
2023-01-25T06:37:37.255Z,2.54
2023-01-25T06:39:37.243Z,2.56
2023-01-25T06:41:37.255Z,2.58
2023-01-25T06:45:01.262Z,2.59
2023-01-25T06:47:01.283Z,2.66
2023-01-25T06:49:01.286Z,2.7
2023-01-25T06:51:01.386Z,2.69
2023-01-25T06:53:01.284Z,2.61
2023-01-25T06:55:01.364Z,2.73
2023-01-25T06:57:01.282Z,2.76
2023-01-25T07:00:28.656Z,2.84
2023-01-25T07:02:28.688Z,2.88
2023-01-25T07:04:28.651Z,2.89
2023-01-25T07:06:28.656Z,2.73
2023-01-25T07:08:28.626Z,2.81
2023-01-25T07:10:28.675Z,2.86
2023-01-25T07:12:28.676Z,3.01
2023-01-25T07:14:40.023Z,3.17
2023-01-25T07:16:40.005Z,3.1
2023-01-25T07:18:40.055Z,3.1
2023-01-25T07:20:40.021Z,3.27
2023-01-25T07:22:40.093Z,3.1
2023-01-25T07:24:40.126Z,3.3
2023-01-25T07:26:40.329Z,3.11
2023-01-25T07:28:40.288Z,3.15
2023-01-25T07:29:55.744Z,3.23
2023-01-25T07:31:55.780Z,3.28
2023-01-25T07:33:55.769Z,3.16
2023-01-25T07:35:55.667Z,3.27
2023-01-25T07:37:55.695Z,3.16
2023-01-25T07:39:55.749Z,3.23
2023-01-25T07:41:55.689Z,3.31
2023-01-25T07:43:55.762Z,3.49
2023-01-25T07:45:47.208Z,3.41
2023-01-25T07:47:47.176Z,3.5
2023-01-25T07:49:47.224Z,3.49
2023-01-25T07:51:47.168Z,3.45
2023-01-25T07:53:47.167Z,3.53
2023-01-25T07:55:47.237Z,3.7
2023-01-25T07:57:47.386Z,3.82
2023-01-25T08:00:40.850Z,3.78
2023-01-25T08:02:40.845Z,3.82
2023-01-25T08:04:40.840Z,3.84
2023-01-25T08:06:40.858Z,3.83
2023-01-25T08:08:40.836Z,3.96
2023-01-25T08:10:40.847Z,4.11
2023-01-25T08:12:40.860Z,4.25
2023-01-25T08:16:06.984Z,4.38
2023-01-25T08:18:06.959Z,4.5
2023-01-25T08:20:07.037Z,4.55
2023-01-25T08:22:07.006Z,4.03
2023-01-25T08:24:07.029Z,4.09
2023-01-25T08:26:06.966Z,4.18
2023-01-25T08:28:07.013Z,4.42
2023-01-25T08:30:57.148Z,4.48
2023-01-25T08:32:51.085Z,4.41
2023-01-25T08:34:51.070Z,4.65
2023-01-25T08:38:51.063Z,4.76
2023-01-25T08:40:51.114Z,4.76
2023-01-25T08:42:51.017Z,4.88
2023-01-25T08:46:14.529Z,4.94
2023-01-25T08:48:14.659Z,4.95
2023-01-25T08:50:14.767Z,4.85
2023-01-25T08:52:14.505Z,4.89
2023-01-25T08:54:14.522Z,4.89
2023-01-25T08:56:14.585Z,5.04
2023-01-25T08:58:14.548Z,5.05
2023-01-25T09:01:13.889Z,5.08
2023-01-25T09:03:13.853Z,5.04
2023-01-25T09:05:13.879Z,5.23
2023-01-25T09:07:13.799Z,5.37
2023-01-25T09:09:13.836Z,5.35
2023-01-25T09:11:13.813Z,5.58
2023-01-25T09:13:13.806Z,5.48
2023-01-25T09:16:37.673Z,5.57
2023-01-25T09:18:37.649Z,5.39
2023-01-25T09:20:37.652Z,5.65
2023-01-25T09:22:37.678Z,5.6
2023-01-25T09:24:37.675Z,5.6
2023-01-25T09:26:37.944Z,5.53
2023-01-25T09:28:37.843Z,5.67
2023-01-25T09:31:41.574Z,5.54
2023-01-25T09:33:41.340Z,5.81
2023-01-25T09:35:41.403Z,5.78
2023-01-25T09:37:41.390Z,5.83
2023-01-25T09:39:41.372Z,5.77
2023-01-25T09:41:41.399Z,6.08
2023-01-25T09:43:41.457Z,6.29
2023-01-25T09:46:30.718Z,6.02
2023-01-25T09:48:30.664Z,5.9
2023-01-25T09:50:30.637Z,5.76
2023-01-25T09:52:30.659Z,5.36
2023-01-25T09:54:31.836Z,5.74
2023-01-25T09:56:30.642Z,5.72
2023-01-25T09:58:30.607Z,6.01
2023-01-25T10:01:38.424Z,6.22
2023-01-25T10:03:31.117Z,6.35
2023-01-25T10:05:31.105Z,5.83
2023-01-25T10:07:31.172Z,5.85
2023-01-25T10:09:31.210Z,5.74
2023-01-25T10:11:31.391Z,6.23
2023-01-25T10:13:31.102Z,6.27
2023-01-25T10:15:31.109Z,5.46
2023-01-25T10:16:41.589Z,5.66
2023-01-25T10:18:41.570Z,5.85
2023-01-25T10:20:41.591Z,5.76
2023-01-25T10:22:41.565Z,5.66
2023-01-25T10:24:41.563Z,5.79
2023-01-25T10:26:41.578Z,6.15
2023-01-25T10:28:41.597Z,6.02
2023-01-25T10:30:41.628Z,6.11
2023-01-25T10:32:54.840Z,6.41
2023-01-25T10:34:55.673Z,6.1
2023-01-25T10:36:44.364Z,6.08
2023-01-25T10:38:45.130Z,6.45
2023-01-25T10:40:44.516Z,6.69
2023-01-25T10:42:44.336Z,6.93
2023-01-25T10:44:44.315Z,6.87
2023-01-25T10:47:39.719Z,6.89
2023-01-25T10:49:39.654Z,6.41
2023-01-25T10:51:39.640Z,6.72
2023-01-25T10:53:39.696Z,6.48
2023-01-25T10:55:39.632Z,6.62
2023-01-25T10:57:39.666Z,6.95
2023-01-25T10:59:39.796Z,7
2023-01-25T11:02:42.356Z,6.51
2023-01-25T11:04:43.049Z,6.72
2023-01-25T11:06:42.257Z,6.82
2023-01-25T11:08:42.248Z,6.97
2023-01-25T11:10:42.205Z,6.44
2023-01-25T11:12:42.508Z,5.74
2023-01-25T11:14:42.360Z,5.84
2023-01-25T11:18:02.289Z,6.31
2023-01-25T11:20:02.264Z,6.56
2023-01-25T11:22:02.363Z,6.79
2023-01-25T11:24:05.002Z,6.66
2023-01-25T11:26:02.308Z,6.79
2023-01-25T11:28:02.424Z,6.46
2023-01-25T11:30:02.457Z,6.37
2023-01-25T11:33:23.345Z,6.67
2023-01-25T11:35:23.253Z,6.62
2023-01-25T11:37:23.262Z,6.76
2023-01-25T11:39:23.306Z,6.87
2023-01-25T11:41:23.268Z,6.67
2023-01-25T11:43:23.338Z,6.46
2023-01-25T11:45:23.420Z,6.19
2023-01-25T11:47:55.431Z,6.75
2023-01-25T11:49:55.147Z,6.96
2023-01-25T11:51:55.149Z,7.08
2023-01-25T11:53:55.183Z,6.99
2023-01-25T11:55:55.137Z,6.94
2023-01-25T11:57:55.149Z,6.15
2023-01-25T11:59:55.167Z,6.14
2023-01-25T12:02:57.692Z,6.53
2023-01-25T12:04:57.695Z,6.37
2023-01-25T12:06:57.649Z,6.66
2023-01-25T12:08:57.648Z,6.87
2023-01-25T12:10:57.695Z,7.1
2023-01-25T12:12:57.706Z,7.11
2023-01-25T12:14:57.657Z,6.89
2023-01-25T12:18:02.815Z,7.22
2023-01-25T12:20:02.721Z,7.37
2023-01-25T12:22:02.743Z,7.35
2023-01-25T12:24:02.746Z,7.34
2023-01-25T12:26:02.727Z,7.35
2023-01-25T12:28:02.744Z,6.55
2023-01-25T12:30:02.760Z,6.38
2023-01-25T12:32:02.764Z,6.18
2023-01-25T12:33:49.711Z,6.55
2023-01-25T12:35:49.717Z,6.77
2023-01-25T12:37:49.735Z,6.76
2023-01-25T12:39:49.713Z,6.39
2023-01-25T12:41:49.738Z,6.8
2023-01-25T12:43:49.687Z,6.27
2023-01-25T12:45:49.785Z,6.59
2023-01-25T12:48:26.597Z,7.04
2023-01-25T12:50:26.652Z,7.02
2023-01-25T12:52:26.605Z,7.05
2023-01-25T12:54:26.617Z,6.94
2023-01-25T12:56:26.746Z,6.75
2023-01-25T12:58:37.304Z,6.84
2023-01-25T13:00:26.589Z,7.12
2023-01-25T13:03:45.581Z,7.11
2023-01-25T13:05:45.471Z,6.85
2023-01-25T13:07:45.511Z,6.97
2023-01-25T13:09:45.478Z,6.5
2023-01-25T13:11:45.519Z,6.46
2023-01-25T13:13:45.537Z,6.91
2023-01-25T13:15:45.453Z,6.59
2023-01-25T13:19:27.670Z,6.7
2023-01-25T13:21:27.591Z,6.54
2023-01-25T13:23:27.673Z,6.65
2023-01-25T13:25:27.634Z,6.67
2023-01-25T13:27:27.590Z,6.81
2023-01-25T13:29:27.621Z,6.73
2023-01-25T13:31:27.670Z,6.75
2023-01-25T13:34:29.711Z,6.84
2023-01-25T13:36:29.695Z,6.78
2023-01-25T13:38:29.688Z,6.66
2023-01-25T13:40:29.734Z,6.71
2023-01-25T13:42:29.661Z,6.57
2023-01-25T13:44:29.679Z,6.65
2023-01-25T13:46:29.705Z,6.42
2023-01-25T13:49:41.611Z,6.43
2023-01-25T13:51:41.653Z,6.58
2023-01-25T13:53:41.614Z,6.47
2023-01-25T13:55:41.593Z,6.24
2023-01-25T13:57:41.598Z,6.27
2023-01-25T13:59:41.635Z,6.16
2023-01-25T14:01:41.659Z,6.06
2023-01-25T14:04:23.067Z,6.04
2023-01-25T14:06:23.036Z,6.03
2023-01-25T14:08:24.910Z,6.16
2023-01-25T14:10:23.025Z,6.05
2023-01-25T14:12:23.065Z,6.17
2023-01-25T14:14:23.029Z,6.12
2023-01-25T14:16:23.054Z,6.25
2023-01-25T14:19:48.477Z,6.06
2023-01-25T14:21:48.430Z,6.11
2023-01-25T14:23:48.518Z,5.99
2023-01-25T14:25:48.422Z,6.03
2023-01-25T14:27:48.397Z,5.93
2023-01-25T14:29:48.498Z,6.02
2023-01-25T14:31:48.418Z,6.04
2023-01-25T14:34:50.036Z,5.94
2023-01-25T14:36:50.097Z,5.92
2023-01-25T14:38:50.052Z,5.87
2023-01-25T14:40:50.073Z,5.68
2023-01-25T14:42:50.072Z,5.62
2023-01-25T14:44:50.052Z,5.6
2023-01-25T14:46:50.084Z,5.54
2023-01-25T14:49:55.983Z,5.72
2023-01-25T14:51:55.954Z,5.68
2023-01-25T14:53:55.763Z,5.58
2023-01-25T14:55:55.550Z,5.48
2023-01-25T14:57:55.608Z,5.47
2023-01-25T14:59:55.583Z,5.35
2023-01-25T15:01:55.528Z,5.45
2023-01-25T15:04:57.238Z,5.52
2023-01-25T15:06:59.013Z,5.59
2023-01-25T15:08:56.805Z,5.5
2023-01-25T15:10:56.938Z,5.49
2023-01-25T15:13:04.082Z,5.41
2023-01-25T15:14:56.646Z,5.32
2023-01-25T15:16:56.692Z,5.33
2023-01-25T15:20:33.473Z,5.22
2023-01-25T15:22:33.533Z,5.13
2023-01-25T15:24:33.420Z,5.23
2023-01-25T15:26:33.509Z,5.29
2023-01-25T15:28:33.492Z,5.26
2023-01-25T15:30:33.507Z,5.25
2023-01-25T15:32:33.420Z,5.23
2023-01-25T15:36:09.276Z,4.81
2023-01-25T15:38:09.216Z,5.06
2023-01-25T15:40:09.513Z,5.23
2023-01-25T15:42:09.174Z,5.23
2023-01-25T15:44:09.307Z,5.15
2023-01-25T15:46:09.439Z,4.87
2023-01-25T15:48:09.153Z,4.98
2023-01-25T15:50:41.435Z,5.16
2023-01-25T15:52:41.340Z,5.19
2023-01-25T15:54:46.071Z,5.22
2023-01-25T15:56:41.386Z,5.24
2023-01-25T15:58:41.364Z,5.26
2023-01-25T16:00:41.418Z,5.12
2023-01-25T16:02:41.426Z,4.93
2023-01-25T16:05:53.203Z,4.84
2023-01-25T16:07:53.149Z,4.94
2023-01-25T16:09:53.205Z,4.87
2023-01-25T16:11:53.154Z,5.05
2023-01-25T16:13:53.206Z,5.07
2023-01-25T16:15:53.186Z,5.1
2023-01-25T16:17:53.172Z,5.05
2023-01-25T16:21:12.609Z,5.05
2023-01-25T16:23:12.437Z,4.82
2023-01-25T16:25:12.452Z,4.62
2023-01-25T16:27:12.420Z,4.64
2023-01-25T16:29:12.421Z,4.5
2023-01-25T16:31:19.408Z,4.52
2023-01-25T16:33:12.420Z,4.71
2023-01-25T16:36:39.281Z,4.69
2023-01-25T16:38:36.880Z,4.59
2023-01-25T16:40:36.938Z,4.61
2023-01-25T16:42:36.876Z,4.69
2023-01-25T16:44:36.859Z,4.75
2023-01-25T16:46:36.905Z,4.7
2023-01-25T16:48:37.176Z,4.59
2023-01-25T16:51:13.523Z,4.61
2023-01-25T16:53:13.615Z,4.61
2023-01-25T16:55:13.581Z,4.51
2023-01-25T16:57:20.100Z,4.41
2023-01-25T16:59:13.566Z,4.22
2023-01-25T17:01:13.697Z,4.22
2023-01-25T17:03:13.612Z,4.13
2023-01-25T17:07:02.741Z,3.99
2023-01-25T17:09:12.536Z,4.03
2023-01-25T17:11:02.694Z,3.89
2023-01-25T17:13:02.707Z,3.87
2023-01-25T17:15:02.674Z,3.86
2023-01-25T17:17:02.790Z,3.91
2023-01-25T17:19:02.779Z,3.99
2023-01-25T17:21:43.804Z,3.92
2023-01-25T17:23:43.767Z,3.94
2023-01-25T17:25:43.875Z,3.86
2023-01-25T17:27:44.002Z,3.75
2023-01-25T17:29:43.828Z,3.91
2023-01-25T17:31:43.808Z,4
2023-01-25T17:33:44.063Z,3.95
2023-01-25T17:37:22.422Z,3.76
2023-01-25T17:39:22.449Z,3.78
2023-01-25T17:41:22.407Z,3.44
2023-01-25T17:43:22.455Z,3.55
2023-01-25T17:45:22.516Z,3.51
2023-01-25T17:47:22.400Z,3.41
2023-01-25T17:49:22.608Z,3.54
2023-01-25T17:51:46.357Z,3.39
2023-01-25T17:53:46.397Z,3.5
2023-01-25T17:55:46.378Z,3.58
2023-01-25T17:57:46.325Z,3.56
2023-01-25T17:59:46.450Z,3.49
2023-01-25T18:01:46.394Z,3.57
2023-01-25T18:03:46.432Z,3.41
2023-01-25T18:05:46.378Z,3.58
2023-01-25T18:06:56.916Z,3.63
2023-01-25T18:08:57.001Z,3.53
2023-01-25T18:10:56.868Z,3.49
2023-01-25T18:13:04.409Z,3.56
2023-01-25T18:14:56.859Z,3.77
2023-01-25T18:16:57.149Z,3.9
2023-01-25T18:18:56.974Z,3.97
2023-01-25T18:22:06.157Z,4.02
2023-01-25T18:24:06.041Z,4.07
2023-01-25T18:26:05.996Z,4.09
2023-01-25T18:28:06.144Z,4.09
2023-01-25T18:30:05.969Z,3.49
2023-01-25T18:32:06.326Z,3.36
2023-01-25T18:34:06.053Z,3.25
2023-01-25T18:37:09.259Z,2.68
2023-01-25T18:39:09.259Z,3.09
2023-01-25T18:41:09.219Z,2.7
2023-01-25T18:43:09.346Z,3.05
2023-01-25T18:45:09.571Z,3.26
2023-01-25T18:47:09.250Z,3.29
2023-01-25T18:49:09.349Z,2.89
2023-01-25T18:51:09.217Z,3.05
2023-01-25T18:52:53.115Z,2.63
2023-01-25T18:54:53.315Z,2.71
2023-01-25T18:56:53.361Z,2.28
2023-01-25T18:58:53.225Z,2.51
2023-01-25T19:00:53.062Z,2.38
2023-01-25T19:02:53.095Z,1.79
2023-01-25T19:04:53.243Z,2.21
2023-01-25T19:08:07.327Z,1.81
2023-01-25T19:10:07.380Z,1.69
2023-01-25T19:12:07.532Z,1.97
2023-01-25T19:14:07.517Z,2.15
2023-01-25T19:16:07.523Z,2.06
2023-01-25T19:18:07.427Z,2.09
2023-01-25T19:20:07.403Z,1.46
2023-01-25T19:22:55.197Z,1.89
2023-01-25T19:24:55.227Z,1.64
2023-01-25T19:26:55.160Z,1.62
2023-01-25T19:28:55.213Z,1.35
2023-01-25T19:30:55.247Z,1.45
2023-01-25T19:32:55.205Z,1.34
2023-01-25T19:34:55.166Z,0.88
2023-01-25T19:38:15.740Z,1.15
2023-01-25T19:40:15.802Z,1.58
2023-01-25T19:42:17.813Z,1.69
2023-01-25T19:44:15.786Z,1.61
2023-01-25T19:46:15.838Z,1.56
2023-01-25T19:48:15.736Z,1.03
2023-01-25T19:50:15.748Z,1.3
2023-01-25T19:52:54.263Z,0.95
2023-01-25T19:54:54.221Z,0.77
2023-01-25T19:56:54.209Z,0.69
2023-01-25T19:58:54.315Z,1.03
2023-01-25T20:00:54.249Z,1.56
2023-01-25T20:02:55.797Z,1.35
2023-01-25T20:04:54.235Z,1.46
2023-01-25T20:06:54.442Z,0.58
2023-01-25T20:08:07.481Z,0.39
2023-01-25T20:10:07.420Z,0.87
2023-01-25T20:12:07.427Z,0.72
2023-01-25T20:14:07.477Z,0.64
2023-01-25T20:16:07.444Z,1.17
2023-01-25T20:18:07.576Z,1.46
2023-01-25T20:20:07.452Z,1.81
2023-01-25T20:22:07.485Z,1.35
2023-01-25T20:23:40.941Z,0.8
2023-01-25T20:25:40.962Z,1.01
2023-01-25T20:27:40.962Z,0.69
2023-01-25T20:29:40.980Z,0.59
2023-01-25T20:31:41.089Z,0.88
2023-01-25T20:33:41.006Z,1.11
2023-01-25T20:35:40.925Z,1.29
2023-01-25T20:38:58.368Z,1.44
2023-01-25T20:40:58.363Z,1.67
2023-01-25T20:42:58.379Z,1.06
2023-01-25T20:44:58.385Z,1.55
2023-01-25T20:46:58.497Z,1.78
2023-01-25T20:48:58.339Z,1.76
2023-01-25T20:50:58.332Z,1.52
2023-01-25T20:54:21.075Z,1.66
2023-01-25T20:56:21.109Z,1.73
2023-01-25T20:58:21.043Z,2.08
2023-01-25T21:00:21.079Z,1.78
2023-01-25T21:02:21.067Z,1.53
2023-01-25T21:04:21.038Z,2.06
2023-01-25T21:06:21.039Z,2.22
2023-01-25T21:08:52.288Z,1.98
2023-01-25T21:10:52.343Z,1.83
2023-01-25T21:12:52.529Z,2.1
2023-01-25T21:14:52.414Z,2.32
2023-01-25T21:16:52.595Z,2.12
2023-01-25T21:18:52.215Z,1.87
2023-01-25T21:20:52.218Z,2.01
2023-01-25T21:22:52.241Z,2.24
2023-01-25T21:24:55.271Z,2.41
2023-01-25T21:26:55.335Z,2.58
2023-01-25T21:28:55.260Z,2.53
2023-01-25T21:30:55.273Z,2.62
2023-01-25T21:32:55.295Z,2.61
2023-01-25T21:34:55.267Z,2.59
2023-01-25T21:36:55.275Z,2.58
2023-01-25T21:39:12.203Z,1.9
2023-01-25T21:41:12.260Z,1.93
2023-01-25T21:43:12.219Z,1.58
2023-01-25T21:45:12.441Z,1.6
2023-01-25T21:47:31.622Z,1.75
2023-01-25T21:49:12.273Z,2
2023-01-25T21:51:12.191Z,2.16
2023-01-25T21:53:12.191Z,2.26
2023-01-25T21:54:22.827Z,2.26
2023-01-25T21:56:22.812Z,1.64
2023-01-25T21:58:22.814Z,1.92
2023-01-25T22:00:22.786Z,2.13
2023-01-25T22:02:23.006Z,1.97
2023-01-25T22:04:22.844Z,2.11
2023-01-25T22:06:22.778Z,2.19
2023-01-25T22:08:22.797Z,2.06
2023-01-25T22:09:33.138Z,2.08
2023-01-25T22:11:33.195Z,2
2023-01-25T22:13:33.123Z,1.96
2023-01-25T22:15:33.151Z,1.88
2023-01-25T22:17:33.134Z,1.91
2023-01-25T22:19:33.196Z,2.08
2023-01-25T22:21:33.108Z,1.82
2023-01-25T22:23:33.138Z,1.9
2023-01-25T22:25:32.459Z,1.58
2023-01-25T22:27:32.491Z,1.8
2023-01-25T22:29:32.460Z,1.81
2023-01-25T22:31:32.635Z,1.39
2023-01-25T22:33:32.474Z,1.56
2023-01-25T22:35:32.505Z,1.81
2023-01-25T22:37:32.428Z,2
2023-01-25T22:40:26.268Z,2.17
2023-01-25T22:42:26.261Z,2.23
2023-01-25T22:44:26.265Z,1.95
2023-01-25T22:46:26.302Z,2.23
2023-01-25T22:48:26.254Z,2.13
2023-01-25T22:50:26.276Z,2.17
2023-01-25T22:52:26.280Z,2.26
2023-01-25T22:55:28.843Z,2.37
2023-01-25T22:57:28.816Z,2.54
2023-01-25T22:59:28.838Z,2.38
2023-01-25T23:01:28.818Z,2.38
2023-01-25T23:03:28.858Z,2.25
2023-01-25T23:05:28.805Z,2.26
2023-01-25T23:07:28.839Z,2.27
2023-01-25T23:11:03.545Z,2.32
2023-01-25T23:13:03.502Z,2.37
2023-01-25T23:15:03.593Z,2.33
2023-01-25T23:17:03.495Z,2.43
2023-01-25T23:19:03.527Z,2.51
2023-01-25T23:21:03.496Z,2.49
2023-01-25T23:23:03.590Z,2.55
2023-01-25T23:25:50.985Z,2.53
2023-01-25T23:27:50.992Z,2.54
2023-01-25T23:29:50.982Z,2.44
2023-01-25T23:31:51.069Z,2.19
2023-01-25T23:33:50.976Z,2.21
2023-01-25T23:35:51.026Z,2.44
2023-01-25T23:37:50.977Z,2.44
2023-01-25T23:40:37.639Z,2.47
2023-01-25T23:42:37.561Z,2.53
2023-01-25T23:44:37.566Z,2.2
2023-01-25T23:46:37.679Z,2.23
2023-01-25T23:48:37.560Z,2.3
2023-01-25T23:50:37.630Z,2.32
2023-01-25T23:52:37.562Z,2.38
2023-01-25T23:56:06.296Z,2.39
2023-01-25T23:58:06.229Z,2.3
